Time;durP1;ratioP1;P1;durP2;ratioP2;P2;SDS_P1;SDS_P2;PMS_P1;PMS_P2;Temp;Humidity;BMP_temperature;BMP_pressure;BME280_temperature;BME280_humidity;BME280_pressure;Samples;Min_cycle;Max_cycle;Signal;HPM_P1;HPM_P2
2021/04/02 00:00:36;;;;;;;32.33;21.15;;;410.30;1433.60;;;;;;5094020;28;20044;-74
2021/04/02 00:03:17;;;;;;;30.63;20.30;;;410.30;1433.60;;;;;;5094275;28;20035;-74
2021/04/02 00:05:43;;;;;;;35.25;21.45;;;410.30;1433.60;;;;;;5093917;28;20359;-73
2021/04/02 00:08:09;;;;;;;32.20;20.52;;;410.30;1433.60;;;;;;5093924;28;20039;-74
2021/04/02 00:10:43;;;;;;;29.83;22.48;;;410.30;1433.60;;;;;;5093932;28;20024;-74
2021/04/02 00:13:09;;;;;;;38.42;20.90;;;410.30;1459.20;;;;;;5092125;28;20462;-73
2021/04/02 00:15:36;;;;;;;35.65;21.73;;;410.20;1433.60;;;;;;5094790;28;20142;-73
2021/04/02 00:18:02;;;;;;;32.85;21.30;;;410.20;1459.20;;;;;;5094702;28;20032;-72
2021/04/02 00:20:27;;;;;;;27.50;19.60;;;410.10;1459.20;;;;;;5092735;28;20043;-74
2021/04/02 00:22:53;;;;;;;24.13;18.05;;;410.10;1459.20;;;;;;5095225;28;20028;-74
2021/04/02 00:25:20;;;;;;;32.42;19.13;;;410.00;1459.20;;;;;;5093649;28;20427;-73
2021/04/02 00:27:46;;;;;;;21.40;16.45;;;410.00;1459.20;;;;;;5092904;28;20074;-74
2021/04/02 00:30:18;;;;;;;23.60;16.92;;;410.00;1459.20;;;;;;5094255;28;20024;-73
2021/04/02 00:32:44;;;;;;;24.45;18.58;;;410.00;1459.20;;;;;;5094747;28;20028;-73
2021/04/02 00:35:12;;;;;;;25.80;19.58;;;409.90;1484.80;;;;;;5094848;28;20036;-74
2021/04/02 00:37:39;;;;;;;25.67;19.63;;;409.90;1484.80;;;;;;5092058;28;20036;-73
2021/04/02 00:40:12;;;;;;;35.38;22.20;;;409.80;1484.80;;;;;;5094633;28;20032;-73
2021/04/02 00:42:38;;;;;;;36.38;22.48;;;409.80;1484.80;;;;;;5092139;28;20095;-73
2021/04/02 00:45:05;;;;;;;40.00;22.85;;;409.70;1484.80;;;;;;5094270;28;20066;-72
2021/04/02 00:47:30;;;;;;;37.10;23.23;;;409.70;1484.80;;;;;;5090902;28;20031;-72
2021/04/02 00:49:57;;;;;;;47.42;25.15;;;409.70;1484.80;;;;;;5094602;28;20016;-73
2021/04/02 00:52:22;;;;;;;48.35;23.63;;;409.60;1484.80;;;;;;5094253;28;20031;-73
2021/04/02 00:54:48;;;;;;;51.88;23.73;;;409.60;1510.40;;;;;;5093879;28;20377;-73
2021/04/02 00:57:14;;;;;;;54.22;22.23;;;384.90;1484.80;;;;;;5094040;28;20024;-73
2021/04/02 00:59:42;;;;;;;46.30;23.70;;;384.80;1510.40;;;;;;5092976;28;20050;-73
2021/04/02 01:02:08;;;;;;;54.40;24.67;;;384.80;1510.40;;;;;;5094178;28;20023;-73
2021/04/02 01:04:34;;;;;;;44.78;21.98;;;384.70;1510.40;;;;;;5092894;28;20036;-73
2021/04/02 01:06:59;;;;;;;39.67;23.90;;;384.70;1510.40;;;;;;5093339;28;20534;-73
2021/04/02 01:09:25;;;;;;;33.38;22.52;;;384.70;1510.40;;;;;;5094223;28;20032;-74
2021/04/02 01:11:51;;;;;;;35.30;23.65;;;384.70;1510.40;;;;;;5094567;28;20466;-75
2021/04/02 01:14:18;;;;;;;29.27;21.20;;;384.60;1510.40;;;;;;5094748;28;20032;-76
2021/04/02 01:16:44;;;;;;;29.02;20.48;;;384.60;1536.00;;;;;;5094619;28;20458;-74
2021/04/02 01:19:22;;;;;;;27.00;19.52;;;384.60;1536.00;;;;;;5093173;28;20106;-75
2021/04/02 01:22:04;;;;;;;30.98;19.02;;;384.50;1536.00;;;;;;5094004;28;20024;-75
2021/04/02 01:24:37;;;;;;;24.92;16.63;;;384.50;1536.00;;;;;;5094381;28;20023;-74
2021/04/02 01:27:37;;;;;;;22.85;16.13;;;384.50;1536.00;;;;;;5094474;28;20420;-72
2021/04/02 01:30:10;;;;;;;72.53;16.65;;;384.50;1536.00;;;;;;5093085;28;20530;-71
2021/04/02 01:32:40;;;;;;;26.55;10.55;;;384.50;1536.00;;;;;;5093090;28;20466;-73
2021/04/02 01:35:27;;;;;;;19.00;8.02;;;384.60;1561.60;;;;;;5094452;28;20396;-72
2021/04/02 01:37:54;;;;;;;30.17;6.63;;;384.70;1587.20;;;;;;5093985;28;20043;-72
2021/04/02 01:40:23;;;;;;;31.23;6.50;;;384.70;1612.80;;;;;;5094246;28;20040;-72
2021/04/02 01:42:51;;;;;;;98.80;10.68;;;384.80;1638.40;;;;;;5094079;28;20530;-73
2021/04/02 01:45:18;;;;;;;98.53;11.25;;;384.90;1664.00;;;;;;5093939;28;20478;-72
2021/04/02 01:47:45;;;;;;;39.08;7.63;;;384.90;1664.00;;;;;;5094226;28;20024;-74
2021/04/02 01:50:14;;;;;;;46.70;6.75;;;409.60;1689.60;;;;;;5094157;28;20036;-72
2021/04/02 01:52:41;;;;;;;33.67;5.72;;;409.60;1715.20;;;;;;5094022;28;20036;-72
2021/04/02 01:55:12;;;;;;;12.85;4.45;;;409.60;1740.80;;;;;;5092738;28;20021;-74
2021/04/02 01:57:39;;;;;;;8.80;3.33;;;409.70;1740.80;;;;;;5092072;28;20039;-74
2021/04/02 02:00:34;;;;;;;12.85;3.33;;;409.70;1715.20;;;;;;5093875;28;20036;-73
2021/04/02 02:03:01;;;;;;;5.00;2.60;;;409.70;1740.80;;;;;;5091730;28;20507;-73
2021/04/02 02:05:31;;;;;;;9.02;3.13;;;409.80;1740.80;;;;;;5093746;28;20035;-75
2021/04/02 02:07:59;;;;;;;9.50;2.65;;;409.80;1740.80;;;;;;5093904;28;20533;-74
2021/04/02 02:10:26;;;;;;;9.43;3.38;;;409.80;1740.80;;;;;;5092626;28;20035;-74
2021/04/02 02:12:54;;;;;;;6.95;2.38;;;409.80;1740.80;;;;;;5093829;28;20036;-74
2021/04/02 02:15:20;;;;;;;13.32;2.60;;;409.80;1740.80;;;;;;5094203;28;20366;-74
2021/04/02 02:17:59;;;;;;;8.25;2.55;;;409.80;1740.80;;;;;;5093643;28;20497;-73
2021/04/02 02:20:29;;;;;;;9.70;2.58;;;409.80;1740.80;;;;;;5093830;28;20118;-73
2021/04/02 02:22:56;;;;;;;9.57;2.40;;;409.80;1740.80;;;;;;5093758;28;20024;-73
2021/04/02 02:25:27;;;;;;;9.30;2.72;;;409.80;1740.80;;;;;;5093818;28;20020;-73
2021/04/02 02:27:54;;;;;;;8.95;2.75;;;409.80;1766.40;;;;;;5093739;28;20069;-74
2021/04/02 02:30:26;;;;;;;10.27;2.92;;;409.80;1766.40;;;;;;5093652;28;20492;-73
2021/04/02 02:32:53;;;;;;;9.80;2.45;;;409.80;1792.00;;;;;;5093771;28;20024;-74
2021/04/02 02:35:19;;;;;;;6.53;2.30;;;409.80;1817.60;;;;;;5092288;28;20354;-74
2021/04/02 02:37:47;;;;;;;5.53;2.22;;;409.80;1817.60;;;;;;5093470;28;20040;-74
2021/04/02 02:40:17;;;;;;;5.45;2.58;;;409.80;1792.00;;;;;;5093628;28;20036;-74
2021/04/02 02:42:43;;;;;;;4.40;2.25;;;409.80;1817.60;;;;;;5093608;28;20028;-74
2021/04/02 02:45:12;;;;;;;6.22;2.10;;;409.80;1817.60;;;;;;5096526;28;20347;-74
2021/04/02 02:47:39;;;;;;;2.92;1.77;;;409.70;1792.00;;;;;;5097154;28;20453;-74
2021/04/02 02:50:09;;;;;;;4.30;2.33;;;409.70;1792.00;;;;;;5096175;28;20378;-76
2021/04/02 02:52:36;;;;;;;3.58;1.63;;;409.70;1766.40;;;;;;5096930;28;20111;-74
2021/04/02 02:55:04;;;;;;;5.50;1.75;;;409.70;1740.80;;;;;;5097438;28;20031;-75
2021/04/02 02:57:32;;;;;;;3.08;1.60;;;409.60;1715.20;;;;;;5097381;28;20028;-74
2021/04/02 03:00:00;;;;;;;5.60;1.65;;;409.60;1715.20;;;;;;5097290;28;20032;-74
2021/04/02 03:02:27;;;;;;;5.55;1.85;;;409.60;1715.20;;;;;;5097145;28;20465;-74
2021/04/02 03:04:55;;;;;;;3.33;1.70;;;409.60;1715.20;;;;;;5097041;28;20450;-74
2021/04/02 03:07:22;;;;;;;1.83;1.63;;;409.60;1715.20;;;;;;5097039;28;20090;-74
2021/04/02 03:09:50;;;;;;;4.57;1.92;;;384.90;1715.20;;;;;;5097014;28;20109;-74
2021/04/02 03:12:18;;;;;;;4.70;1.83;;;384.90;1740.80;;;;;;5096826;28;20024;-76
2021/04/02 03:14:46;;;;;;;5.00;2.75;;;384.90;1715.20;;;;;;5097120;28;20048;-74
2021/04/02 03:17:12;;;;;;;6.65;3.40;;;384.80;1740.80;;;;;;5096725;28;20056;-77
2021/04/02 03:19:39;;;;;;;9.15;3.83;;;384.80;1740.80;;;;;;5096937;28;20070;-74
2021/04/02 03:22:09;;;;;;;8.63;3.28;;;384.70;1740.80;;;;;;5096554;28;20027;-74
2021/04/02 03:24:38;;;;;;;6.20;3.65;;;384.70;1766.40;;;;;;5096861;28;20035;-74
2021/04/02 03:27:06;;;;;;;5.95;3.05;;;384.60;1792.00;;;;;;5096855;28;20023;-76
2021/04/02 03:29:32;;;;;;;5.10;2.75;;;384.60;1792.00;;;;;;5096046;28;20020;-77
2021/04/02 03:32:07;;;;;;;7.50;2.90;;;384.50;1792.00;;;;;;5096752;28;20028;-77
2021/04/02 03:34:34;;;;;;;6.75;3.13;;;384.50;1792.00;;;;;;5096669;28;20047;-74
2021/04/02 03:37:02;;;;;;;5.57;3.58;;;384.50;1817.60;;;;;;5096455;28;20497;-74
2021/04/02 03:39:31;;;;;;;5.22;3.38;;;384.50;1817.60;;;;;;5096383;28;20526;-75
2021/04/02 03:42:00;;;;;;;9.45;3.70;;;384.50;1843.20;;;;;;5096472;28;20031;-74
2021/04/02 03:44:31;;;;;;;7.82;4.15;;;384.50;1817.60;;;;;;5096401;28;20023;-74
2021/04/02 03:47:00;;;;;;;8.05;3.97;;;384.50;1817.60;;;;;;5096442;28;20366;-76
2021/04/02 03:49:31;;;;;;;8.15;4.88;;;384.50;1817.60;;;;;;5096584;28;20382;-76
2021/04/02 03:52:00;;;;;;;7.05;4.72;;;384.50;1817.60;;;;;;5096200;28;20016;-76
2021/04/02 03:54:30;;;;;;;6.55;4.47;;;384.50;1817.60;;;;;;5096211;28;20028;-73
2021/04/02 03:56:58;;;;;;;8.60;5.35;;;384.60;1817.60;;;;;;5095414;28;20362;-76
2021/04/02 03:59:25;;;;;;;9.50;5.82;;;384.60;1792.00;;;;;;5111406;28;20405;-74
2021/04/02 04:01:53;;;;;;;8.40;5.63;;;384.60;1766.40;;;;;;5096195;28;20032;-74
2021/04/02 04:04:23;;;;;;;11.45;6.32;;;384.60;1766.40;;;;;;5096249;28;20044;-73
2021/04/02 04:06:54;;;;;;;6.93;5.00;;;384.60;1766.40;;;;;;5096286;28;20078;-73
2021/04/02 04:09:21;;;;;;;9.70;5.43;;;384.60;1766.40;;;;;;5095879;28;20020;-73
2021/04/02 04:11:49;;;;;;;10.48;5.50;;;384.60;1766.40;;;;;;5111529;28;20039;-73
2021/04/02 04:14:16;;;;;;;13.98;5.60;;;384.70;1766.40;;;;;;5095906;28;20024;-75
2021/04/02 04:16:43;;;;;;;6.47;4.65;;;384.60;1766.40;;;;;;5095737;28;20469;-73
2021/04/02 04:19:12;;;;;;;8.05;4.38;;;384.60;1766.40;;;;;;5095453;28;20024;-79
2021/04/02 04:21:42;;;;;;;5.55;4.18;;;384.60;1766.40;;;;;;5099674;28;20024;-78
2021/04/02 04:24:14;;;;;;;8.27;5.38;;;384.60;1740.80;;;;;;5095663;28;20403;-75
2021/04/02 04:26:45;;;;;;;14.75;6.47;;;384.60;1740.80;;;;;;5095774;28;20028;-74
2021/04/02 04:29:20;;;;;;;9.10;5.60;;;384.50;1740.80;;;;;;5095421;28;20462;-75
2021/04/02 04:31:47;;;;;;;13.85;6.10;;;384.40;1740.80;;;;;;5094849;28;20366;-82
2021/04/02 04:34:14;;;;;;;15.45;7.15;;;384.40;1740.80;;;;;;5095723;28;20081;-80
2021/04/02 04:36:43;;;;;;;12.68;5.93;;;384.40;1740.80;;;;;;5091949;28;20097;-75
2021/04/02 04:39:09;;;;;;;11.75;5.50;;;384.40;1740.80;;;;;;5095529;28;20072;-73
2021/04/02 04:41:37;;;;;;;12.35;5.70;;;384.30;1766.40;;;;;;5095480;28;20051;-72
2021/04/02 04:44:05;;;;;;;14.57;6.88;;;384.20;1766.40;;;;;;5094955;28;20016;-76
2021/04/02 04:46:32;;;;;;;13.55;6.20;;;384.20;1766.40;;;;;;5095231;28;20028;-73
2021/04/02 04:48:58;;;;;;;10.75;6.70;;;384.20;1792.00;;;;;;5095224;28;20053;-78
2021/04/02 04:51:26;;;;;;;15.32;6.90;;;384.20;1792.00;;;;;;5110735;28;20036;-73
2021/04/02 04:53:55;;;;;;;12.93;7.70;;;384.20;1792.00;;;;;;5095044;28;20024;-79
2021/04/02 04:56:23;;;;;;;14.85;10.40;;;384.20;1817.60;;;;;;5092013;28;20031;-78
2021/04/02 04:58:52;;;;;;;18.85;11.38;;;384.10;1817.60;;;;;;5074769;28;20025;-79
2021/04/02 05:01:20;;;;;;;27.38;15.10;;;384.20;1792.00;;;;;;5074515;28;20039;-73
2021/04/02 05:03:46;;;;;;;26.08;12.93;;;384.20;1817.60;;;;;;5103255;28;20023;-73
2021/04/02 05:06:14;;;;;;;21.40;12.48;;;384.20;1817.60;;;;;;5115560;28;20069;-76
2021/04/02 05:08:42;;;;;;;18.63;9.85;;;384.20;1817.60;;;;;;5114956;28;20396;-81
2021/04/02 05:11:11;;;;;;;24.67;9.48;;;384.20;1817.60;;;;;;5099119;28;20020;-74
2021/04/02 05:13:39;;;;;;;27.20;8.82;;;384.30;1843.20;;;;;;5094866;28;20039;-79
2021/04/02 05:16:06;;;;;;;15.63;7.07;;;384.30;1817.60;;;;;;5093354;28;20035;-80
2021/04/02 05:18:33;;;;;;;12.50;6.57;;;384.30;1817.60;;;;;;5094866;28;20024;-80
2021/04/02 05:20:59;;;;;;;10.57;6.55;;;384.40;1817.60;;;;;;5094880;28;20036;-80
2021/04/02 05:23:25;;;;;;;9.73;5.70;;;384.40;1817.60;;;;;;5094966;28;20471;-80
2021/04/02 05:25:51;;;;;;;14.38;5.95;;;384.40;1817.60;;;;;;5094440;28;20056;-80
2021/04/02 05:28:17;;;;;;;11.18;5.68;;;384.40;1817.60;;;;;;5094652;28;20052;-80
2021/04/02 05:30:43;;;;;;;6.85;4.93;;;384.50;1817.60;;;;;;5094628;28;20020;-74
2021/04/02 05:33:09;;;;;;;11.15;5.13;;;384.50;1817.60;;;;;;5094452;28;20024;-79
2021/04/02 05:35:35;;;;;;;8.55;4.63;;;384.50;1817.60;;;;;;5094679;28;20020;-75
2021/04/02 05:38:02;;;;;;;8.70;5.57;;;384.50;1817.60;;;;;;5094101;28;20131;-81
2021/04/02 05:40:28;;;;;;;7.60;4.50;;;384.50;1817.60;;;;;;5094278;28;20455;-80
2021/04/02 05:43:35;;;;;;;4.78;3.97;;;384.60;1817.60;;;;;;5094284;28;20016;-79
2021/04/02 05:46:02;;;;;;;6.63;4.15;;;384.60;1817.60;;;;;;5091174;28;20374;-74
2021/04/02 05:48:32;;;;;;;5.90;4.15;;;384.60;1817.60;;;;;;5094153;28;20028;-75
2021/04/02 05:50:58;;;;;;;5.80;4.25;;;384.60;1817.60;;;;;;5094277;28;20024;-75
2021/04/02 05:53:26;;;;;;;7.15;4.30;;;384.60;1817.60;;;;;;5094208;28;20024;-81
2021/04/02 05:55:54;;;;;;;11.00;5.30;;;384.60;1817.60;;;;;;5094930;28;20422;-80
2021/04/02 05:58:21;;;;;;;8.35;4.97;;;384.60;1843.20;;;;;;5094236;28;20032;-81
2021/04/02 06:00:47;;;;;;;7.53;5.22;;;384.60;1843.20;;;;;;5093785;28;20084;-80
2021/04/02 06:03:16;;;;;;;13.35;5.60;;;384.60;1843.20;;;;;;5094295;28;20385;-78
2021/04/02 06:05:45;;;;;;;8.65;5.90;;;384.60;1843.20;;;;;;5094065;28;20020;-74
2021/04/02 06:08:11;;;;;;;8.18;5.68;;;384.70;1843.20;;;;;;5094270;28;20515;-79
2021/04/02 06:10:37;;;;;;;15.57;6.10;;;384.70;1843.20;;;;;;5093975;28;20028;-79
2021/04/02 06:13:03;;;;;;;12.07;6.80;;;384.70;1843.20;;;;;;5093958;28;20028;-79
2021/04/02 06:15:32;;;;;;;13.30;7.30;;;384.70;1843.20;;;;;;5094188;28;20101;-79
2021/04/02 06:18:11;;;;;;;23.60;7.75;;;384.70;1843.20;;;;;;5093787;28;20034;-73
2021/04/02 06:20:49;;;;;;;12.20;7.13;;;384.70;1843.20;;;;;;5097702;28;20119;-73
2021/04/02 06:23:17;;;;;;;18.30;6.85;;;384.70;1843.20;;;;;;5098144;28;20024;-78
2021/04/02 06:25:47;;;;;;;13.70;6.40;;;384.80;1843.20;;;;;;5098196;28;20031;-74
2021/04/02 06:28:22;;;;;;;17.75;6.20;;;384.80;1843.20;;;;;;5097857;28;20012;-76
2021/04/02 06:31:07;;;;;;;23.60;7.68;;;384.90;1843.20;;;;;;5097910;28;20017;-78
2021/04/02 06:33:53;;;;;;;16.50;6.85;;;409.60;1843.20;;;;;;5097946;28;20047;-72
2021/04/02 06:36:25;;;;;;;16.33;6.63;;;409.70;1868.80;;;;;;5096198;28;20035;-78
2021/04/02 06:38:56;;;;;;;10.80;6.43;;;409.80;1868.80;;;;;;5097910;28;20031;-79
2021/04/02 06:41:24;;;;;;;11.50;6.13;;;409.90;1868.80;;;;;;5097958;28;20412;-73
2021/04/02 06:43:54;;;;;;;10.38;6.13;;;410.00;1868.80;;;;;;5098035;28;20016;-80
2021/04/02 06:46:27;;;;;;;11.57;6.85;;;410.10;1843.20;;;;;;5097684;28;20032;-71
2021/04/02 06:48:54;;;;;;;11.85;6.97;;;410.10;1843.20;;;;;;5098015;28;20028;-71
2021/04/02 06:51:22;;;;;;;20.92;7.55;;;410.30;1817.60;;;;;;5097670;28;20024;-74
2021/04/02 06:53:50;;;;;;;15.05;9.40;;;410.40;1817.60;;;;;;5097697;28;20020;-77
2021/04/02 06:56:18;;;;;;;17.23;9.30;;;435.20;1792.00;;;;;;5097680;28;20454;-80
2021/04/02 06:58:44;;;;;;;13.65;7.78;;;435.30;1766.40;;;;;;5096212;28;20024;-80
2021/04/02 07:01:15;;;;;;;16.00;8.68;;;435.40;1740.80;;;;;;5097384;28;20064;-79
2021/04/02 07:03:43;;;;;;;16.50;9.15;;;435.50;1740.80;;;;;;5097425;28;20476;-79
2021/04/02 07:06:10;;;;;;;20.27;9.40;;;435.60;1740.80;;;;;;5097767;28;20028;-79
2021/04/02 07:08:39;;;;;;;35.53;10.65;;;435.70;1715.20;;;;;;5095983;28;20032;-71
2021/04/02 07:11:05;;;;;;;75.95;13.95;;;435.80;1664.00;;;;;;5097049;28;20047;-72
2021/04/02 07:13:38;;;;;;;30.75;13.07;;;435.80;1664.00;;;;;;5097061;28;20036;-77
2021/04/02 07:16:05;;;;;;;39.58;14.60;;;435.80;1664.00;;;;;;5096169;28;20034;-71
2021/04/02 07:18:31;;;;;;;37.28;17.75;;;435.90;1664.00;;;;;;5096662;28;20370;-77
2021/04/02 07:20:56;;;;;;;33.22;15.63;;;435.90;1664.00;;;;;;5094691;28;20051;-77
2021/04/02 07:23:23;;;;;;;29.20;16.35;;;435.90;1664.00;;;;;;5096913;28;20028;-70
2021/04/02 07:25:48;;;;;;;31.85;17.00;;;436.00;1664.00;;;;;;5096828;28;20031;-70
2021/04/02 07:28:16;;;;;;;23.85;14.45;;;436.10;1638.40;;;;;;5096754;28;20024;-77
2021/04/02 07:30:44;;;;;;;21.80;13.18;;;460.80;1638.40;;;;;;5096819;28;20063;-71
2021/04/02 07:33:11;;;;;;;26.00;14.55;;;460.80;1638.40;;;;;;5096488;28;20081;-71
2021/04/02 07:35:38;;;;;;;31.17;14.13;;;460.80;1612.80;;;;;;5096737;28;20020;-71
2021/04/02 07:38:09;;;;;;;25.45;13.80;;;460.90;1612.80;;;;;;5096444;28;20093;-77
2021/04/02 07:40:35;;;;;;;24.85;13.63;;;460.90;1638.40;;;;;;5096602;28;20111;-77
2021/04/02 07:43:06;;;;;;;21.08;14.93;;;461.00;1612.80;;;;;;5096606;28;20490;-70
2021/04/02 07:45:37;;;;;;;21.60;14.32;;;461.10;1587.20;;;;;;5096182;28;20024;-76
2021/04/02 07:48:16;;;;;;;25.80;15.27;;;461.20;1587.20;;;;;;5095764;28;20474;-69
2021/04/02 07:51:01;;;;;;;35.00;17.48;;;461.40;1587.20;;;;;;5095988;28;20031;-72
2021/04/02 07:53:27;;;;;;;31.95;16.75;;;461.50;1587.20;;;;;;5096176;28;20089;-70
2021/04/02 07:56:00;;;;;;;28.10;16.35;;;461.60;1561.60;;;;;;5096562;28;20074;-71
2021/04/02 07:58:30;;;;;;;30.27;14.68;;;461.70;1561.60;;;;;;5096034;28;20027;-71
2021/04/02 08:00:58;;;;;;;27.58;16.48;;;486.40;1561.60;;;;;;5096295;28;20064;-72
2021/04/02 08:03:34;;;;;;;23.17;14.43;;;486.40;1536.00;;;;;;5095298;28;20020;-70
2021/04/02 08:06:05;;;;;;;32.38;17.92;;;486.40;1510.40;;;;;;5095537;28;20464;-72
2021/04/02 08:08:48;;;;;;;27.13;17.83;;;486.50;1484.80;;;;;;5094854;28;20028;-72
2021/04/02 08:11:25;;;;;;;27.92;18.15;;;486.50;1484.80;;;;;;5095667;28;20035;-76
2021/04/02 08:14:00;;;;;;;26.55;18.20;;;486.50;1459.20;;;;;;5095622;28;20085;-72
2021/04/02 08:16:35;;;;;;;28.13;17.02;;;486.50;1459.20;;;;;;5095587;28;20016;-71
2021/04/02 08:19:06;;;;;;;24.67;16.27;;;486.60;1459.20;;;;;;5094768;28;20411;-76
2021/04/02 08:21:37;;;;;;;32.75;18.15;;;486.60;1459.20;;;;;;5091871;28;20041;-72
2021/04/02 08:24:05;;;;;;;25.60;17.77;;;486.60;1459.20;;;;;;5090722;28;20034;-71
2021/04/02 08:26:33;;;;;;;29.23;19.27;;;486.60;1459.20;;;;;;5095706;28;20122;-70
2021/04/02 08:29:00;;;;;;;35.33;21.13;;;486.60;1459.20;;;;;;5095635;28;20017;-72
2021/04/02 08:31:26;;;;;;;41.95;24.20;;;486.60;1459.20;;;;;;5095829;28;20032;-75
2021/04/02 08:33:56;;;;;;;40.67;23.60;;;486.60;1459.20;;;;;;5095299;28;20020;-71
2021/04/02 08:36:22;;;;;;;38.90;22.90;;;486.60;1459.20;;;;;;5095023;28;20048;-71
2021/04/02 08:38:49;;;;;;;32.47;20.80;;;486.70;1459.20;;;;;;5095573;28;20465;-74
2021/04/02 08:41:32;;;;;;;30.58;20.60;;;486.80;1433.60;;;;;;5095111;28;20036;-69
2021/04/02 08:43:59;;;;;;;62.92;25.80;;;486.90;1433.60;;;;;;5095265;28;20520;-67
2021/04/02 08:46:44;;;;;;;99.35;34.90;;;487.10;1433.60;;;;;;5095272;28;20077;-77
2021/04/02 08:49:14;;;;;;;87.03;44.50;;;487.20;1433.60;;;;;;5111251;28;20404;-73
2021/04/02 08:51:46;;;;;;;61.10;36.17;;;487.30;1433.60;;;;;;5094853;28;20024;-71
2021/04/02 08:54:17;;;;;;;62.58;36.78;;;512.00;1433.60;;;;;;5095215;28;20024;-76
2021/04/02 08:56:43;;;;;;;42.47;28.30;;;512.10;1408.00;;;;;;5094876;28;20058;-72
2021/04/02 08:59:10;;;;;;;56.55;34.72;;;512.30;1382.40;;;;;;5094802;28;20024;-76
2021/04/02 09:01:47;;;;;;;38.80;26.33;;;512.50;1382.40;;;;;;5094860;28;20116;-76
2021/04/02 09:04:14;;;;;;;40.83;23.00;;;512.60;1382.40;;;;;;5093474;28;20466;-77
2021/04/02 09:06:42;;;;;;;35.88;24.35;;;512.80;1356.80;;;;;;5095007;28;20436;-74
2021/04/02 09:09:34;;;;;;;34.85;21.42;;;512.90;1331.20;;;;;;5095510;28;20486;-66
2021/04/02 09:12:18;;;;;;;153.77;36.10;;;512.90;1331.20;;;;;;5091947;28;20047;-68
2021/04/02 09:14:46;;;;;;;212.20;39.17;;;512.90;1331.20;;;;;;5094932;28;20022;-72
2021/04/02 09:17:20;;;;;;;68.60;27.25;;;512.80;1331.20;;;;;;5095238;28;20474;-65
2021/04/02 09:19:46;;;;;;;68.13;28.10;;;512.80;1305.60;;;;;;5094913;28;20521;-70
2021/04/02 09:22:13;;;;;;;91.57;33.03;;;512.80;1305.60;;;;;;5094893;28;20047;-74
2021/04/02 09:24:41;;;;;;;66.50;35.10;;;537.60;1356.80;;;;;;5094761;28;20035;-68
2021/04/02 09:27:11;;;;;;;65.07;29.60;;;537.80;1356.80;;;;;;5094700;28;20043;-70
2021/04/02 09:29:36;;;;;;;47.75;19.40;;;538.00;1356.80;;;;;;5093424;28;20028;-67
2021/04/02 09:32:05;;;;;;;32.15;18.00;;;538.10;1331.20;;;;;;5094595;28;20035;-65
2021/04/02 09:34:31;;;;;;;28.52;17.45;;;538.00;1331.20;;;;;;5093310;28;20032;-65
2021/04/02 09:36:58;;;;;;;31.55;18.48;;;538.00;1331.20;;;;;;5094009;28;20048;-74
2021/04/02 09:39:26;;;;;;;27.42;16.70;;;537.90;1331.20;;;;;;5094139;28;20058;-74
2021/04/02 09:41:54;;;;;;;30.88;18.23;;;537.80;1331.20;;;;;;5094374;28;20032;-64
2021/04/02 09:44:32;;;;;;;30.38;17.40;;;537.70;1331.20;;;;;;5094457;28;20099;-71
2021/04/02 09:47:12;;;;;;;28.50;16.55;;;537.70;1331.20;;;;;;5093006;28;20081;-75
2021/04/02 09:49:40;;;;;;;30.92;16.70;;;537.60;1356.80;;;;;;5094328;28;20129;-73
2021/04/02 09:52:07;;;;;;;26.50;17.55;;;537.60;1356.80;;;;;;5094277;28;20115;-64
2021/04/02 09:54:34;;;;;;;37.35;19.92;;;537.60;1356.80;;;;;;5093022;28;20020;-74
2021/04/02 09:57:05;;;;;;;41.45;18.63;;;537.60;1356.80;;;;;;5094545;28;20032;-72
2021/04/02 09:59:31;;;;;;;33.47;16.92;;;537.60;1382.40;;;;;;5094132;28;20499;-76
2021/04/02 10:01:57;;;;;;;53.45;28.30;;;537.70;1382.40;;;;;;5094030;28;20023;-65
2021/04/02 10:04:25;;;;;;;61.53;29.90;;;537.90;1382.40;;;;;;5093560;28;20027;-65
2021/04/02 10:06:51;;;;;;;44.30;20.55;;;538.00;1382.40;;;;;;5094214;28;20028;-73
2021/04/02 10:09:17;;;;;;;34.47;18.92;;;538.20;1356.80;;;;;;5093945;28;20366;-75
2021/04/02 10:11:49;;;;;;;31.55;20.23;;;538.40;1356.80;;;;;;5094086;28;20020;-75
2021/04/02 10:14:17;;;;;;;29.42;19.13;;;538.50;1331.20;;;;;;5093936;28;20350;-68
2021/04/02 10:16:45;;;;;;;31.45;19.23;;;563.20;1331.20;;;;;;5093696;28;20028;-75
2021/04/02 10:19:11;;;;;;;30.40;19.65;;;563.30;1331.20;;;;;;5093452;28;20073;-66
2021/04/02 10:21:37;;;;;;;43.80;19.98;;;563.40;1331.20;;;;;;5093300;28;20424;-74
2021/04/02 10:24:03;;;;;;;35.75;19.83;;;563.40;1331.20;;;;;;5093932;28;20024;-65
2021/04/02 10:26:29;;;;;;;28.88;16.77;;;563.40;1331.20;;;;;;5093913;28;20016;-65
2021/04/02 10:28:56;;;;;;;40.90;19.42;;;563.30;1305.60;;;;;;5093811;28;20087;-75
2021/04/02 10:31:22;;;;;;;29.40;18.40;;;563.20;1305.60;;;;;;5093701;28;20020;-65
2021/04/02 10:33:48;;;;;;;24.55;17.50;;;563.20;1305.60;;;;;;5093685;28;20041;-65
2021/04/02 10:36:14;;;;;;;37.13;20.70;;;563.20;1305.60;;;;;;5093363;28;20030;-74
2021/04/02 10:38:40;;;;;;;32.42;22.95;;;563.20;1305.60;;;;;;5093323;28;20107;-75
2021/04/02 10:41:06;;;;;;;60.10;22.95;;;563.20;1305.60;;;;;;5093290;28;20043;-78
2021/04/02 10:43:32;;;;;;;39.47;19.92;;;563.20;1305.60;;;;;;5093391;28;20031;-65
2021/04/02 10:45:59;;;;;;;28.60;19.27;;;563.30;1305.60;;;;;;5093646;28;20020;-71
2021/04/02 10:48:25;;;;;;;64.80;26.50;;;563.40;1331.20;;;;;;5093495;28;20157;-79
2021/04/02 10:50:52;;;;;;;34.10;21.73;;;563.40;1331.20;;;;;;5093420;28;20103;-66
2021/04/02 10:53:18;;;;;;;31.67;20.95;;;563.40;1331.20;;;;;;5093575;28;20013;-78
2021/04/02 10:55:44;;;;;;;23.98;18.35;;;563.30;1331.20;;;;;;5093625;28;20036;-66
2021/04/02 10:58:12;;;;;;;27.63;17.15;;;563.30;1331.20;;;;;;5093533;28;20373;-67
2021/04/02 11:00:39;;;;;;;28.83;18.45;;;563.20;1331.20;;;;;;5093189;28;20078;-67
2021/04/02 11:03:06;;;;;;;29.15;20.67;;;538.50;1305.60;;;;;;5093479;28;20023;-66
2021/04/02 11:05:33;;;;;;;25.83;18.13;;;538.40;1331.20;;;;;;5095258;28;20380;-76
2021/04/02 11:07:59;;;;;;;30.02;18.75;;;538.30;1331.20;;;;;;5097352;28;20020;-71
2021/04/02 11:10:26;;;;;;;27.63;19.17;;;538.20;1305.60;;;;;;5097351;28;20099;-77
2021/04/02 11:12:52;;;;;;;34.05;20.55;;;538.20;1331.20;;;;;;5096957;28;20028;-66
2021/04/02 11:15:19;;;;;;;34.83;20.98;;;538.20;1331.20;;;;;;5097069;28;20186;-76
2021/04/02 11:17:46;;;;;;;63.15;23.50;;;538.20;1331.20;;;;;;5097015;28;20020;-79
2021/04/02 11:20:17;;;;;;;62.28;24.73;;;538.20;1331.20;;;;;;5097242;28;20094;-69
2021/04/02 11:22:43;;;;;;;38.97;20.38;;;538.30;1331.20;;;;;;5097115;28;20027;-73
2021/04/02 11:25:11;;;;;;;32.05;18.55;;;538.30;1305.60;;;;;;5097061;28;20052;-79
2021/04/02 11:27:38;;;;;;;30.23;16.35;;;538.40;1254.40;;;;;;5096002;28;20016;-69
2021/04/02 11:30:08;;;;;;;26.02;17.58;;;538.30;1203.20;;;;;;5081595;28;20584;-72
2021/04/02 11:32:37;;;;;;;49.75;22.25;;;538.40;1203.20;;;;;;5075539;28;20386;-73
2021/04/02 11:35:04;;;;;;;58.97;24.40;;;538.40;1203.20;;;;;;5075456;28;20031;-65
2021/04/02 11:37:30;;;;;;;48.97;22.75;;;538.50;1203.20;;;;;;5074751;28;20604;-66
2021/04/02 11:39:55;;;;;;;37.42;19.17;;;563.20;1228.80;;;;;;5075309;28;20063;-73
2021/04/02 11:42:21;;;;;;;37.33;19.40;;;563.40;1203.20;;;;;;5075179;28;20020;-75
2021/04/02 11:44:47;;;;;;;39.63;17.77;;;563.50;1203.20;;;;;;5074702;28;20059;-69
2021/04/02 11:47:13;;;;;;;39.25;20.85;;;563.70;1203.20;;;;;;5073974;28;20025;-67
2021/04/02 11:49:39;;;;;;;34.10;19.58;;;563.90;1203.20;;;;;;5075090;28;20029;-66
2021/04/02 11:52:06;;;;;;;35.58;17.77;;;564.10;1177.60;;;;;;5074882;28;20063;-78
2021/04/02 11:54:35;;;;;;;40.15;19.27;;;588.90;1152.00;;;;;;5075213;28;20363;-67
2021/04/02 11:57:02;;;;;;;78.20;24.50;;;589.00;1126.40;;;;;;5075287;28;20031;-67
2021/04/02 11:59:27;;;;;;;74.70;23.17;;;589.10;1100.80;;;;;;5074813;28;20108;-78
2021/04/02 12:01:53;;;;;;;38.80;17.02;;;589.20;1075.20;;;;;;5075339;28;20205;-77
2021/04/02 12:04:19;;;;;;;36.45;15.57;;;589.30;1075.20;;;;;;5075134;28;20032;-73
2021/04/02 12:06:45;;;;;;;51.60;23.42;;;589.30;1075.20;;;;;;5074886;28;20111;-69
2021/04/02 12:09:11;;;;;;;65.70;24.73;;;589.30;1100.80;;;;;;5073554;28;20028;-78
2021/04/02 12:11:38;;;;;;;32.30;16.67;;;589.40;1075.20;;;;;;5075002;28;20024;-68
2021/04/02 12:14:04;;;;;;;31.27;13.48;;;589.40;1024.00;;;;;;5074423;28;20023;-67